Time;durP1;ratioP1;P1;durP2;ratioP2;P2;SDS_P1;SDS_P2;PMS_P1;PMS_P2;Temp;Humidity;BMP_temperature;BMP_pressure;BME280_temperature;BME280_humidity;BME280_pressure;Samples;Min_cycle;Max_cycle;Signal;HPM_P1;HPM_P2
2024/01/13 00:00:57;;;;;;;;;19.25;10.50;;;;;0.10;96.76;100379.96;113134;238;40441;-54
2024/01/13 00:03:54;;;;;;;;;13.00;11.00;;;;;0.12;96.68;100380.96;113116;239;39408;-55
2024/01/13 00:06:32;;;;;;;;;17.25;11.00;;;;;0.14;96.60;100379.75;113138;239;39892;-55
2024/01/13 00:09:12;;;;;;;;;16.50;12.50;;;;;0.13;96.64;100378.25;113119;239;39487;-55
2024/01/13 00:11:48;;;;;;;;;14.67;8.67;;;;;0.12;96.61;100368.42;113124;239;39239;-52
2024/01/13 00:15:02;;;;;;;;;10.50;7.50;;;;;0.11;96.59;100369.41;113113;239;39777;-52
2024/01/13 00:17:39;;;;;;;;;9.75;7.00;;;;;0.07;96.70;100368.72;113079;239;39703;-56
2024/01/13 00:20:18;;;;;;;;;13.00;7.00;;;;;0.01;96.75;100365.41;113174;238;40291;-52
2024/01/13 00:22:54;;;;;;;;;16.00;11.00;;;;;-0.02;96.74;100364.77;113143;239;38940;-52
2024/01/13 00:25:30;;;;;;;;;10.67;8.00;;;;;-0.08;96.84;100366.30;113134;239;38966;-54
2024/01/13 00:28:06;;;;;;;;;13.50;10.00;;;;;-0.06;96.81;100366.73;113134;238;40230;-54
2024/01/13 00:30:44;;;;;;;;;7.67;6.33;;;;;-0.05;96.81;100368.73;113157;238;39530;-54
2024/01/13 00:33:24;;;;;;;;;9.00;6.25;;;;;-0.03;96.84;100369.30;113121;239;39943;-54
2024/01/13 00:36:04;;;;;;;;;14.50;9.25;;;;;-0.06;96.91;100369.88;113129;239;40289;-51
2024/01/13 00:38:41;;;;;;;;;11.50;8.50;;;;;-0.05;96.97;100374.08;113102;239;39236;-51
2024/01/13 00:41:18;;;;;;;;;16.00;11.00;;;;;-0.02;96.99;100367.26;113133;239;39013;-56
2024/01/13 00:43:55;;;;;;;;;9.00;6.67;;;;;0.02;96.91;100367.14;113135;239;39010;-56
2024/01/13 00:46:30;;;;;;;;;8.00;6.25;;;;;0.04;96.87;100363.09;113138;239;41489;-54
2024/01/13 00:49:08;;;;;;;;;10.00;7.00;;;;;0.06;96.89;100363.25;113133;239;39242;-53
2024/01/13 00:51:46;;;;;;;;;11.25;8.50;;;;;0.05;96.84;100365.31;113132;239;40113;-53
2024/01/13 00:54:23;;;;;;;;;10.75;7.00;;;;;0.05;96.91;100371.11;113141;239;39898;-54
2024/01/13 00:57:01;;;;;;;;;13.25;8.00;;;;;0.04;96.92;100366.45;113165;239;39043;-50
2024/01/13 00:59:42;;;;;;;;;11.00;7.75;;;;;0.08;96.84;100363.84;113141;239;40123;-51
2024/01/13 01:02:22;;;;;;;;;9.00;7.00;;;;;0.11;96.80;100355.58;113149;239;40306;-53
2024/01/13 01:05:01;;;;;;;;;11.75;8.75;;;;;0.17;96.68;100343.77;113128;239;39853;-54
2024/01/13 01:07:37;;;;;;;;;7.00;6.00;;;;;0.19;96.64;100342.18;113125;239;39033;-52
2024/01/13 01:10:14;;;;;;;;;8.00;6.00;;;;;0.22;96.69;100340.70;113147;239;39852;-54
2024/01/13 01:12:50;;;;;;;;;9.00;7.00;;;;;0.16;96.61;100338.39;113138;239;39642;-55
2024/01/13 01:15:34;;;;;;;;;12.00;8.00;;;;;0.16;96.59;100336.91;113182;238;42973;-55
2024/01/13 01:18:15;;;;;;;;;9.00;6.00;;;;;0.13;96.58;100340.89;113123;238;39235;-56
2024/01/13 01:20:54;;;;;;;;;7.00;6.00;;;;;0.07;96.63;100342.79;113176;239;41299;-56
2024/01/13 01:23:32;;;;;;;;;8.00;6.00;;;;;0.05;96.71;100342.23;113102;239;41537;-56
2024/01/13 01:26:10;;;;;;;;;7.00;5.00;;;;;0.08;96.54;100339.91;113111;239;39181;-55
2024/01/13 01:28:51;;;;;;;;;9.00;6.75;;;;;0.03;96.65;100341.02;113118;239;40953;-56
2024/01/13 01:31:28;;;;;;;;;7.75;5.50;;;;;0.01;96.72;100342.22;113146;239;40018;-52
2024/01/13 01:34:08;;;;;;;;;13.00;9.25;;;;;0.02;96.58;100348.16;113113;239;40993;-52
2024/01/13 01:36:47;;;;;;;;;10.25;7.50;;;;;-0.01;96.71;100349.08;113104;239;40280;-55
2024/01/13 01:39:23;;;;;;;;;10.00;8.00;;;;;-0.03;96.70;100349.14;113117;239;39863;-56
2024/01/13 01:41:56;;;;;;;;;11.00;8.00;;;;;0.01;96.77;100351.08;113146;238;40020;-55
2024/01/13 01:44:38;;;;;;;;;11.00;7.00;;;;;-0.02;96.83;100342.44;113140;238;39692;-55
2024/01/13 01:47:16;;;;;;;;;10.00;7.00;;;;;0.01;96.78;100336.55;113141;239;40301;-50
2024/01/13 01:49:54;;;;;;;;;11.00;8.00;;;;;0.05;96.71;100340.31;113175;239;39932;-51
2024/01/13 01:52:28;;;;;;;;;10.00;7.00;;;;;0.11;96.53;100342.16;113142;239;39877;-54
2024/01/13 01:55:07;;;;;;;;;12.00;9.00;;;;;0.12;96.55;100342.02;113113;239;39955;-54
2024/01/13 01:57:43;;;;;;;;;10.00;8.00;;;;;0.13;96.42;100338.45;113174;239;40430;-50
2024/01/13 02:00:21;;;;;;;;;6.75;5.50;;;;;0.13;96.31;100340.58;113116;239;40866;-50
2024/01/13 02:02:56;;;;;;;;;9.00;6.25;;;;;0.14;96.14;100332.67;113173;239;39788;-50
2024/01/13 02:05:33;;;;;;;;;7.50;6.00;;;;;0.15;96.13;100328.71;113123;239;40718;-55
2024/01/13 02:08:14;;;;;;;;;6.00;3.50;;;;;0.16;96.09;100325.41;113116;239;40493;-54
2024/01/13 02:10:54;;;;;;;;;8.00;6.00;;;;;0.15;95.96;100325.39;113141;239;40378;-52
2024/01/13 02:13:31;;;;;;;;;7.00;6.00;;;;;0.09;95.88;100323.16;113149;239;39053;-52
2024/01/13 02:16:07;;;;;;;;;7.75;5.00;;;;;0.05;95.85;100317.17;113167;238;39432;-51
2024/01/13 02:18:43;;;;;;;;;8.00;5.00;;;;;0.00;95.91;100313.82;113158;239;39487;-51
2024/01/13 02:21:21;;;;;;;;;9.50;6.00;;;;;0.01;95.80;100306.64;113181;239;39536;-51
2024/01/13 02:24:01;;;;;;;;;8.00;5.00;;;;;0.00;95.87;100305.32;113138;239;39505;-51
2024/01/13 02:26:40;;;;;;;;;10.00;8.00;;;;;0.02;95.79;100299.19;113171;239;40289;-53
2024/01/13 02:29:17;;;;;;;;;11.00;8.00;;;;;0.01;95.84;100291.58;113122;239;39548;-52
2024/01/13 02:31:53;;;;;;;;;9.00;6.00;;;;;0.06;95.79;100291.88;113160;239;40472;-55
2024/01/13 02:34:33;;;;;;;;;15.00;8.00;;;;;0.09;95.75;100293.94;113136;239;39468;-54
2024/01/13 02:37:10;;;;;;;;;8.00;6.00;;;;;0.09;95.69;100290.59;113149;239;39986;-54
2024/01/13 02:39:47;;;;;;;;;8.33;7.00;;;;;0.12;95.57;100283.42;113113;239;40439;-54
2024/01/13 02:42:28;;;;;;;;;8.00;4.00;;;;;0.15;95.46;100277.19;113144;238;39469;-51
2024/01/13 02:45:09;;;;;;;;;7.00;5.00;;;;;0.14;95.40;100268.25;113128;239;39576;-53
2024/01/13 02:47:50;;;;;;;;;10.50;7.00;;;;;0.19;95.40;100270.33;113121;239;41129;-54
2024/01/13 02:50:32;;;;;;;;;6.00;5.00;;;;;0.20;95.31;100265.08;113126;239;39861;-55
2024/01/13 02:53:08;;;;;;;;;9.00;7.50;;;;;0.20;95.19;100262.25;113109;239;39258;-55
2024/01/13 02:55:42;;;;;;;;;10.00;6.00;;;;;0.17;95.24;100264.24;113125;238;40014;-51
2024/01/13 02:58:17;;;;;;;;;7.00;5.00;;;;;0.13;95.18;100250.84;113114;239;39575;-51
2024/01/13 03:00:52;;;;;;;;;9.00;6.00;;;;;0.10;95.25;100249.48;113163;239;40052;-55
2024/01/13 03:03:29;;;;;;;;;9.00;6.00;;;;;0.05;95.13;100250.89;113120;239;40975;-55
2024/01/13 03:06:08;;;;;;;;;9.25;7.25;;;;;0.03;95.16;100249.86;113163;239;40135;-54
2024/01/13 03:08:51;;;;;;;;;5.75;5.00;;;;;0.03;95.17;100248.13;113149;239;40092;-56
2024/01/13 03:11:32;;;;;;;;;9.00;7.00;;;;;0.04;95.16;100244.45;113158;239;39003;-54
2024/01/13 03:14:12;;;;;;;;;9.00;7.00;;;;;0.05;95.28;100242.64;113147;239;40259;-54
2024/01/13 03:16:50;;;;;;;;;6.50;4.00;;;;;0.09;95.40;100246.34;113127;239;40822;-51
2024/01/13 03:19:26;;;;;;;;;15.00;9.00;;;;;0.14;95.23;100252.67;113099;239;41232;-50
2024/01/13 03:22:12;;;;;;;;;13.25;8.75;;;;;0.17;95.16;100253.69;113148;239;39908;-50
2024/01/13 03:24:50;;;;;;;;;11.00;8.00;;;;;0.15;95.20;100250.41;113134;239;40413;-51
2024/01/13 03:27:30;;;;;;;;;10.00;7.00;;;;;0.21;95.12;100249.08;113155;239;40541;-55
2024/01/13 03:30:08;;;;;;;;;8.50;6.00;;;;;0.24;95.06;100250.35;113160;239;40858;-53
2024/01/13 03:32:46;;;;;;;;;9.00;7.00;;;;;0.19;95.21;100247.99;113129;239;40670;-56
2024/01/13 03:35:21;;;;;;;;;6.50;6.00;;;;;0.22;95.26;100253.20;113110;239;39821;-54
2024/01/13 03:37:58;;;;;;;;;9.75;6.75;;;;;0.22;95.18;100257.27;113120;239;39831;-54
2024/01/13 03:40:36;;;;;;;;;11.33;8.33;;;;;0.18;95.15;100255.98;113114;239;39726;-56
2024/01/13 03:43:14;;;;;;;;;8.00;5.00;;;;;0.19;95.26;100258.09;113109;239;39766;-56
2024/01/13 03:45:53;;;;;;;;;10.75;8.00;;;;;0.18;95.17;100256.05;113094;239;40940;-55
2024/01/13 03:48:33;;;;;;;;;8.00;6.00;;;;;0.16;95.18;100255.99;113112;238;40449;-56
2024/01/13 03:51:16;;;;;;;;;9.00;7.00;;;;;0.15;95.19;100252.77;113155;239;40377;-52
2024/01/13 03:53:52;;;;;;;;;11.75;9.00;;;;;0.13;95.19;100241.20;113110;240;41091;-52
2024/01/13 03:56:30;;;;;;;;;10.00;7.25;;;;;0.10;95.18;100239.67;113118;240;38906;-56
2024/01/13 03:59:08;;;;;;;;;5.00;4.50;;;;;0.12;95.25;100231.89;113134;240;39547;-56
2024/01/13 04:01:44;;;;;;;;;9.00;7.00;;;;;0.11;95.39;100233.60;113149;240;41344;-50
2024/01/13 04:04:20;;;;;;;;;12.00;9.00;;;;;0.15;95.40;100227.79;113156;240;40120;-51
2024/01/13 04:06:56;;;;;;;;;14.75;9.00;;;;;0.19;95.45;100228.70;113158;240;39225;-56
2024/01/13 04:09:37;;;;;;;;;15.25;11.00;;;;;0.24;95.40;100227.77;113128;240;39151;-55
2024/01/13 04:12:21;;;;;;;;;9.00;6.00;;;;;0.24;95.49;100230.36;113147;240;39779;-54
2024/01/13 04:14:56;;;;;;;;;16.00;11.00;;;;;0.25;95.42;100226.60;113126;240;39630;-55
2024/01/13 04:17:34;;;;;;;;;15.00;8.00;;;;;0.27;95.44;100229.77;113068;240;40629;-50
2024/01/13 04:20:10;;;;;;;;;11.50;8.75;;;;;0.26;95.46;100233.60;113134;240;40513;-51
2024/01/13 04:22:47;;;;;;;;;10.75;8.00;;;;;0.29;95.42;100235.23;113132;240;39820;-50
2024/01/13 04:25:26;;;;;;;;;19.00;11.00;;;;;0.31;95.50;100238.27;113119;240;40833;-53
2024/01/13 04:28:03;;;;;;;;;15.00;8.75;;;;;0.37;95.46;100245.73;113110;240;39210;-54
2024/01/13 04:30:40;;;;;;;;;10.00;7.00;;;;;0.33;95.50;100250.81;113142;240;41086;-52
2024/01/13 04:33:18;;;;;;;;;13.00;9.00;;;;;0.25;95.52;100258.98;113075;240;40469;-52
2024/01/13 04:36:00;;;;;;;;;13.00;9.00;;;;;0.25;95.49;100260.23;113117;240;39714;-54
2024/01/13 04:38:38;;;;;;;;;8.00;6.00;;;;;0.24;95.47;100255.52;113109;240;39257;-54
2024/01/13 04:41:14;;;;;;;;;11.00;8.00;;;;;0.24;95.50;100253.27;113045;239;39374;-55
2024/01/13 04:43:49;;;;;;;;;10.25;8.00;;;;;0.21;95.63;100249.18;113107;240;39938;-55
2024/01/13 04:46:24;;;;;;;;;13.25;9.00;;;;;0.18;95.75;100253.04;113095;240;41256;-52
2024/01/13 04:49:02;;;;;;;;;9.00;7.00;;;;;0.16;95.77;100244.30;113102;240;40644;-51
2024/01/13 04:51:40;;;;;;;;;10.75;7.00;;;;;0.16;95.86;100248.05;113105;239;39145;-51
2024/01/13 04:54:16;;;;;;;;;7.67;6.00;;;;;0.18;95.89;100244.35;113137;239;40322;-51
2024/01/13 04:56:55;;;;;;;;;13.00;8.00;;;;;0.18;95.96;100242.92;113127;239;41000;-51
2024/01/13 04:59:34;;;;;;;;;11.00;9.00;;;;;0.19;95.99;100244.80;113129;239;39788;-51
2024/01/13 05:02:15;;;;;;;;;11.00;8.00;;;;;0.22;95.95;100243.85;113122;238;40863;-56
2024/01/13 05:04:54;;;;;;;;;12.33;9.00;;;;;0.27;95.91;100245.48;112791;239;419327;-56
2024/01/13 05:07:36;;;;;;;;;18.75;11.00;;;;;0.27;95.93;100244.96;113075;239;39796;-51
2024/01/13 05:10:12;;;;;;;;;9.75;7.25;;;;;0.31;95.93;100246.58;113103;239;40183;-55
2024/01/13 05:12:50;;;;;;;;;10.50;8.00;;;;;0.36;95.94;100248.47;113157;239;39880;-56
2024/01/13 05:15:26;;;;;;;;;7.75;5.00;;;;;0.40;95.82;100249.90;113117;239;40054;-54
2024/01/13 05:18:02;;;;;;;;;14.00;11.00;;;;;0.40;95.91;100243.92;113149;239;40795;-55
2024/01/13 05:20:37;;;;;;;;;10.00;8.00;;;;;0.36;95.96;100251.63;113142;238;40743;-52
2024/01/13 05:23:13;;;;;;;;;13.00;8.00;;;;;0.35;95.91;100252.45;113102;239;39146;-51
2024/01/13 05:25:54;;;;;;;;;7.00;5.00;;;;;0.34;95.87;100253.23;113124;239;39792;-52
2024/01/13 05:28:32;;;;;;;;;8.00;6.00;;;;;0.27;95.87;100258.14;113149;239;40515;-52
2024/01/13 05:31:09;;;;;;;;;9.00;7.00;;;;;0.23;96.01;100262.70;113166;239;39461;-52
2024/01/13 05:33:49;;;;;;;;;12.00;8.00;;;;;0.19;96.05;100261.46;113183;239;40876;-52
2024/01/13 05:36:25;;;;;;;;;12.25;8.00;;;;;0.20;96.07;100264.71;113124;239;39130;-51
2024/01/13 05:39:02;;;;;;;;;11.50;7.75;;;;;0.23;96.06;100266.24;113160;239;41066;-50
2024/01/13 05:41:39;;;;;;;;;12.50;8.00;;;;;0.22;96.28;100267.36;113137;239;39603;-50
2024/01/13 05:44:16;;;;;;;;;12.00;8.50;;;;;0.24;96.19;100269.55;113136;238;39461;-51
2024/01/13 05:46:56;;;;;;;;;9.00;6.00;;;;;0.27;96.27;100272.58;113194;239;39902;-51
2024/01/13 05:49:35;;;;;;;;;15.00;11.00;;;;;0.26;96.40;100274.11;113151;239;40832;-51
2024/01/13 05:52:10;;;;;;;;;12.00;9.00;;;;;0.26;96.47;100269.15;113121;239;41238;-55
2024/01/13 05:54:46;;;;;;;;;11.00;8.75;;;;;0.18;96.66;100272.11;113169;239;39176;-54
2024/01/13 05:57:21;;;;;;;;;9.25;7.00;;;;;0.11;96.83;100270.39;113150;239;40406;-51
2024/01/13 06:00:00;;;;;;;;;14.00;10.00;;;;;0.15;96.82;100267.81;113108;239;41086;-52
2024/01/13 06:02:35;;;;;;;;;11.00;8.00;;;;;0.21;96.71;100265.00;113127;239;39817;-53
2024/01/13 06:05:12;;;;;;;;;9.00;6.00;;;;;0.22;96.72;100260.98;113169;239;40319;-51
2024/01/13 06:07:47;;;;;;;;;10.33;8.00;;;;;0.24;96.78;100256.04;113156;239;40190;-50
2024/01/13 06:10:25;;;;;;;;;9.00;6.00;;;;;0.27;96.83;100257.41;113143;239;39358;-55
2024/01/13 06:13:03;;;;;;;;;8.00;6.00;;;;;0.31;96.64;100255.44;113178;238;39940;-56
2024/01/13 06:15:40;;;;;;;;;8.00;6.00;;;;;0.30;96.72;100253.88;113178;238;40695;-51
2024/01/13 06:18:21;;;;;;;;;6.50;6.00;;;;;0.32;96.72;100253.73;113103;239;40896;-51
2024/01/13 06:20:57;;;;;;;;;9.75;7.00;;;;;0.30;96.67;100253.27;113179;238;39893;-54
2024/01/13 06:23:31;;;;;;;;;8.33;6.67;;;;;0.28;96.67;100255.51;113142;239;40374;-54
2024/01/13 06:26:09;;;;;;;;;14.50;8.75;;;;;0.27;96.63;100257.74;113123;239;39287;-55
2024/01/13 06:28:45;;;;;;;;;12.75;7.25;;;;;0.24;96.62;100258.66;113176;238;39760;-56
2024/01/13 06:31:23;;;;;;;;;6.33;4.67;;;;;0.21;96.76;100262.52;113145;239;39626;-50
2024/01/13 06:34:03;;;;;;;;;13.00;9.00;;;;;0.16;96.79;100260.41;113127;239;39362;-50
2024/01/13 06:36:41;;;;;;;;;8.00;5.75;;;;;0.19;96.65;100263.76;113149;239;40476;-51
2024/01/13 06:39:20;;;;;;;;;7.33;6.00;;;;;0.18;96.76;100263.70;113151;239;39190;-51
2024/01/13 06:41:59;;;;;;;;;11.00;8.00;;;;;0.19;96.79;100257.72;113113;239;39181;-55
2024/01/13 06:44:38;;;;;;;;;10.00;7.00;;;;;0.22;96.80;100263.84;113120;239;39836;-56
2024/01/13 06:47:17;;;;;;;;;8.00;6.00;;;;;0.17;96.81;100267.64;113142;239;39604;-55
2024/01/13 06:49:59;;;;;;;;;6.25;5.25;;;;;0.13;96.99;100269.74;113127;239;40867;-56
2024/01/13 06:52:38;;;;;;;;;12.00;8.75;;;;;0.16;96.91;100274.75;113071;239;39936;-52
2024/01/13 06:55:22;;;;;;;;;13.00;9.25;;;;;0.16;97.09;100269.13;113116;239;41071;-55
2024/01/13 06:58:01;;;;;;;;;10.00;9.00;;;;;0.23;97.00;100270.30;113105;239;40248;-56
2024/01/13 07:00:39;;;;;;;;;9.67;7.00;;;;;0.29;97.02;100273.33;113144;239;39530;-55
2024/01/13 07:03:19;;;;;;;;;6.25;5.00;;;;;0.31;96.99;100275.11;113127;239;40988;-55
2024/01/13 07:05:59;;;;;;;;;14.00;9.00;;;;;0.33;96.89;100281.89;113132;239;39465;-51
2024/01/13 07:08:38;;;;;;;;;15.33;10.67;;;;;0.38;97.00;100279.64;113146;239;40698;-51
2024/01/13 07:11:20;;;;;;;;;9.25;7.00;;;;;0.38;96.85;100280.70;113147;239;38961;-55
2024/01/13 07:14:00;;;;;;;;;8.00;6.00;;;;;0.34;96.96;100284.94;113127;239;40431;-55
2024/01/13 07:16:39;;;;;;;;;9.00;6.67;;;;;0.34;96.86;100284.92;113152;238;40091;-52
2024/01/13 07:19:17;;;;;;;;;7.00;5.50;;;;;0.35;96.84;100290.52;113128;239;41207;-52
2024/01/13 07:21:55;;;;;;;;;7.00;5.50;;;;;0.37;96.85;100289.52;113120;239;40071;-52
2024/01/13 07:24:31;;;;;;;;;8.25;5.50;;;;;0.35;96.90;100291.77;113128;239;39462;-51
2024/01/13 07:27:07;;;;;;;;;11.00;8.00;;;;;0.35;96.91;100288.60;113181;239;40835;-55
2024/01/13 07:29:43;;;;;;;;;13.00;8.00;;;;;0.33;96.99;100288.23;113120;239;41082;-55
2024/01/13 07:32:22;;;;;;;;;13.00;9.00;;;;;0.35;97.03;100287.88;113160;238;39590;-55
2024/01/13 07:35:01;;;;;;;;;12.75;8.50;;;;;0.38;96.98;100290.10;113104;239;40075;-55
2024/01/13 07:37:39;;;;;;;;;12.00;8.00;;;;;0.41;97.09;100295.17;113162;239;39764;-54
2024/01/13 07:40:18;;;;;;;;;11.75;8.25;;;;;0.42;97.03;100294.04;113158;239;39929;-55
2024/01/13 07:42:55;;;;;;;;;15.00;10.00;;;;;0.46;97.03;100292.98;113140;239;40861;-55
2024/01/13 07:45:32;;;;;;;;;17.00;10.67;;;;;0.51;97.02;100297.50;113140;239;39792;-54
2024/01/13 07:48:09;;;;;;;;;15.00;9.25;;;;;0.49;96.98;100297.34;113149;239;39566;-54
2024/01/13 07:50:46;;;;;;;;;14.33;10.00;;;;;0.51;97.02;100290.73;113185;239;39105;-54
2024/01/13 07:53:27;;;;;;;;;11.67;9.00;;;;;0.49;97.10;100291.66;113134;239;40168;-53
2024/01/13 07:56:04;;;;;;;;;10.67;8.00;;;;;0.50;97.21;100284.30;113137;239;39310;-50
2024/01/13 07:58:40;;;;;;;;;10.50;8.00;;;;;0.59;97.09;100282.87;113134;238;40996;-51
2024/01/13 08:01:19;;;;;;;;;12.00;9.00;;;;;0.67;97.09;100279.17;113177;239;40439;-51
2024/01/13 08:03:56;;;;;;;;;14.25;8.75;;;;;0.73;97.11;100276.36;113148;239;39973;-51
2024/01/13 08:06:37;;;;;;;;;17.67;12.00;;;;;0.74;96.88;100277.83;113101;239;41090;-51
2024/01/13 08:09:15;;;;;;;;;10.75;8.25;;;;;0.82;97.01;100271.27;113107;239;39640;-51
2024/01/13 08:11:52;;;;;;;;;15.67;11.00;;;;;0.83;96.88;100272.44;113121;239;40536;-53
2024/01/13 08:14:34;;;;;;;;;15.33;11.00;;;;;0.85;96.89;100265.36;113122;238;40311;-54
2024/01/13 08:17:12;;;;;;;;;15.00;10.00;;;;;0.87;96.81;100263.05;113142;239;40028;-50
2024/01/13 08:19:49;;;;;;;;;17.50;11.25;;;;;0.89;96.68;100272.33;113133;239;39767;-50
2024/01/13 08:22:32;;;;;;;;;13.25;9.50;;;;;0.87;96.67;100273.38;113175;239;38950;-55
2024/01/13 08:25:11;;;;;;;;;13.25;10.00;;;;;0.94;96.54;100274.50;113163;239;39785;-52
2024/01/13 08:27:48;;;;;;;;;16.00;11.00;;;;;0.93;96.47;100274.42;113134;239;40268;-52
2024/01/13 08:30:24;;;;;;;;;16.00;10.00;;;;;0.90;96.39;100274.52;113122;239;42393;-52
2024/01/13 08:33:00;;;;;;;;;10.75;7.50;;;;;0.96;96.43;100280.50;113137;239;40405;-52
2024/01/13 08:35:41;;;;;;;;;11.50;8.00;;;;;0.99;96.34;100272.66;113147;239;39380;-52
2024/01/13 08:38:20;;;;;;;;;9.67;7.00;;;;;0.99;96.18;100268.42;113141;239;39783;-52
2024/01/13 08:41:00;;;;;;;;;8.75;6.50;;;;;1.02;96.06;100276.83;113159;239;39914;-52
2024/01/13 08:43:43;;;;;;;;;10.00;8.00;;;;;1.00;96.05;100270.69;113127;239;39786;-52
2024/01/13 08:46:19;;;;;;;;;10.50;6.00;;;;;1.01;95.96;100270.91;113143;239;39576;-55
2024/01/13 08:48:59;;;;;;;;;10.75;8.00;;;;;1.01;95.89;100272.52;113159;239;39694;-54
2024/01/13 08:51:37;;;;;;;;;11.67;8.67;;;;;1.04;95.78;100275.77;113154;239;40090;-55
2024/01/13 08:54:16;;;;;;;;;10.75;8.00;;;;;1.02;95.65;100280.55;113096;239;41074;-55
2024/01/13 08:56:52;;;;;;;;;10.00;8.00;;;;;0.98;95.64;100279.13;113153;239;40199;-52
2024/01/13 08:59:33;;;;;;;;;15.75;9.00;;;;;0.88;95.54;100284.59;113104;239;40657;-52
2024/01/13 09:02:08;;;;;;;;;17.00;11.00;;;;;0.88;95.38;100286.59;113138;239;39868;-56
2024/01/13 09:04:50;;;;;;;;;11.75;8.00;;;;;0.88;95.41;100285.00;113175;239;40587;-56
2024/01/13 09:07:37;;;;;;;;;13.00;10.00;;;;;0.88;95.31;100290.83;113131;239;40203;-52
2024/01/13 09:10:17;;;;;;;;;12.00;9.00;;;;;0.93;95.28;100288.13;113117;239;39145;-53
2024/01/13 09:12:56;;;;;;;;;13.00;8.75;;;;;0.95;95.21;100280.30;113158;238;39068;-52
2024/01/13 09:15:34;;;;;;;;;11.75;7.75;;;;;0.94;95.13;100276.14;113137;239;40661;-52
2024/01/13 09:18:16;;;;;;;;;7.00;6.00;;;;;0.94;95.06;100271.71;113113;239;39416;-57
2024/01/13 09:20:54;;;;;;;;;9.00;6.00;;;;;0.93;94.95;100263.62;113164;238;40968;-56
2024/01/13 09:23:30;;;;;;;;;7.00;6.00;;;;;0.94;94.79;100258.78;113161;239;39250;-55
2024/01/13 09:26:17;;;;;;;;;11.00;8.00;;;;;0.96;94.76;100251.85;113201;239;39082;-55
2024/01/13 09:28:55;;;;;;;;;9.00;7.00;;;;;1.02;94.74;100258.96;113164;239;39095;-52
2024/01/13 09:31:37;;;;;;;;;11.75;7.00;;;;;1.08;94.64;100260.52;113126;239;40647;-54
2024/01/13 09:34:15;;;;;;;;;9.00;6.00;;;;;1.12;94.49;100251.84;113106;239;39434;-53
2024/01/13 09:36:50;;;;;;;;;7.00;5.75;;;;;1.12;94.29;100256.48;113157;239;41043;-52
2024/01/13 09:39:29;;;;;;;;;10.25;7.00;;;;;1.11;94.32;100251.05;113133;239;40141;-52
2024/01/13 09:42:07;;;;;;;;;11.00;7.00;;;;;1.12;94.18;100244.42;113161;238;39763;-52
2024/01/13 09:44:45;;;;;;;;;12.00;8.00;;;;;1.14;94.16;100245.45;113159;239;39613;-52
2024/01/13 09:47:20;;;;;;;;;8.00;6.00;;;;;1.13;94.16;100241.45;113161;239;40135;-56
2024/01/13 09:50:03;;;;;;;;;9.00;7.00;;;;;1.16;93.94;100234.09;113135;239;40061;-56
2024/01/13 09:52:39;;;;;;;;;17.75;9.75;;;;;1.19;93.99;100232.27;113046;239;40383;-55
2024/01/13 09:55:22;;;;;;;;;7.75;5.00;;;;;1.19;93.95;100222.86;113123;239;41154;-50
2024/01/13 09:58:02;;;;;;;;;11.00;8.00;;;;;1.16;93.95;100217.64;113131;239;39595;-50
2024/01/13 10:00:40;;;;;;;;;8.00;6.25;;;;;1.21;93.78;100215.63;113181;238;40398;-54
2024/01/13 10:03:18;;;;;;;;;15.00;10.00;;;;;1.16;93.71;100213.89;113156;238;39053;-56
2024/01/13 10:05:57;;;;;;;;;7.50;6.00;;;;;1.10;93.75;100209.63;113171;239;40904;-54
2024/01/13 10:08:38;;;;;;;;;10.00;8.00;;;;;1.08;93.60;100209.86;113153;239;39955;-55
2024/01/13 10:11:21;;;;;;;;;10.00;8.00;;;;;1.08;93.59;100199.86;113094;239;40225;-54
2024/01/13 10:14:09;;;;;;;;;14.00;9.75;;;;;1.12;93.52;100197.58;113074;239;39780;-55
2024/01/13 10:16:46;;;;;;;;;19.75;14.00;;;;;1.11;93.53;100196.23;113153;239;39717;-52
2024/01/13 10:19:36;;;;;;;;;18.00;12.33;;;;;1.10;93.43;100192.59;113114;239;39685;-52
2024/01/13 10:22:23;;;;;;;;;14.00;11.00;;;;;1.09;93.38;100192.02;113073;239;39818;-52
2024/01/13 10:25:07;;;;;;;;;12.00;8.25;;;;;1.07;93.37;100190.94;113123;239;40568;-52
2024/01/13 10:27:47;;;;;;;;;9.33;7.33;;;;;1.07;93.17;100187.03;113063;239;40434;-55
2024/01/13 10:30:26;;;;;;;;;14.75;8.75;;;;;1.03;93.27;100181.33;113081;239;38537;-54
2024/01/13 10:33:10;;;;;;;;;11.75;8.00;;;;;0.99;93.23;100178.70;113083;239;40223;-55
2024/01/13 10:35:53;;;;;;;;;15.00;10.00;;;;;0.97;93.07;100175.13;113060;239;39570;-51
2024/01/13 10:38:32;;;;;;;;;13.75;9.00;;;;;0.91;93.24;100173.75;113130;239;39343;-51
2024/01/13 10:41:09;;;;;;;;;16.75;11.25;;;;;0.89;93.23;100177.16;113156;239;39201;-51
2024/01/13 10:43:52;;;;;;;;;8.00;6.00;;;;;0.84;93.34;100169.60;113134;239;38934;-51
2024/01/13 10:46:40;;;;;;;;;13.00;9.25;;;;;0.82;93.41;100155.89;113130;239;39877;-52
2024/01/13 10:49:26;;;;;;;;;16.00;11.00;;;;;0.88;93.30;100146.90;113145;238;39911;-52
2024/01/13 10:52:07;;;;;;;;;11.33;9.00;;;;;0.92;93.19;100138.92;113171;239;40395;-56
2024/01/13 10:54:46;;;;;;;;;12.25;9.00;;;;;0.93;92.95;100131.58;113111;239;39844;-56
2024/01/13 10:57:29;;;;;;;;;12.67;8.33;;;;;0.88;92.63;100125.96;113116;239;40412;-54
2024/01/13 11:00:10;;;;;;;;;12.33;7.00;;;;;0.84;92.72;100119.95;113084;239;40116;-54
2024/01/13 11:02:53;;;;;;;;;9.25;7.25;;;;;0.86;92.83;100122.04;113078;239;39998;-55
2024/01/13 11:05:30;;;;;;;;;7.25;6.00;;;;;0.87;92.82;100113.16;113123;239;39675;-52
2024/01/13 11:08:13;;;;;;;;;8.25;7.00;;;;;0.90;92.80;100107.90;113058;239;39550;-52
2024/01/13 11:10:55;;;;;;;;;8.00;5.00;;;;;0.87;92.86;100106.75;113124;239;40870;-56
2024/01/13 11:13:34;;;;;;;;;9.25;8.00;;;;;0.88;92.75;100106.52;113125;239;40538;-56
2024/01/13 11:16:17;;;;;;;;;11.50;7.75;;;;;0.82;92.69;100108.27;113151;239;40459;-52
2024/01/13 11:18:58;;;;;;;;;11.00;10.00;;;;;0.79;92.62;100111.90;113113;239;39321;-52
2024/01/13 11:21:41;;;;;;;;;11.25;8.50;;;;;0.77;92.72;100114.92;113189;239;40633;-53
2024/01/13 11:24:21;;;;;;;;;17.50;12.50;;;;;0.72;92.79;100119.27;113128;239;39803;-53
2024/01/13 11:27:00;;;;;;;;;17.50;12.00;;;;;0.75;92.78;100118.25;113181;239;39279;-53
2024/01/13 11:29:43;;;;;;;;;11.00;9.00;;;;;0.74;92.70;100117.77;113152;239;40123;-53
2024/01/13 11:32:25;;;;;;;;;14.33;10.00;;;;;0.74;92.86;100109.54;113167;238;39813;-53
2024/01/13 11:35:04;;;;;;;;;14.00;10.00;;;;;0.75;92.90;100108.02;113126;239;39619;-52
2024/01/13 11:37:49;;;;;;;;;13.00;9.00;;;;;0.71;92.85;100106.20;113159;239;39541;-52
2024/01/13 11:40:27;;;;;;;;;14.00;9.00;;;;;0.70;92.81;100102.94;113135;239;40722;-52
2024/01/13 11:43:19;;;;;;;;;9.50;5.00;;;;;0.69;92.79;100102.84;113106;239;40968;-50
2024/01/13 11:45:57;;;;;;;;;11.33;8.00;;;;;0.72;92.50;100096.02;113126;239;39715;-55
2024/01/13 11:48:46;;;;;;;;;15.67;10.67;;;;;0.71;92.46;100088.34;113135;239;39942;-56
2024/01/13 11:51:23;;;;;;;;;11.00;8.00;;;;;0.67;92.69;100084.59;113133;239;41132;-54
2024/01/13 11:54:03;;;;;;;;;12.00;8.00;;;;;0.69;92.60;100081.82;113121;239;39397;-54
2024/01/13 11:56:43;;;;;;;;;17.00;11.33;;;;;0.67;92.58;100079.85;113132;238;40899;-55
2024/01/13 11:59:23;;;;;;;;;10.00;8.00;;;;;0.68;92.39;100076.38;113114;239;40530;-55
2024/01/13 12:02:01;;;;;;;;;13.00;9.00;;;;;0.68;92.32;100069.83;113129;239;39553;-56
2024/01/13 12:04:41;;;;;;;;;12.00;8.25;;;;;0.61;92.42;100062.07;113133;239;39477;-56
2024/01/13 12:07:22;;;;;;;;;11.75;8.00;;;;;0.50;92.63;100051.57;113118;239;41034;-52
2024/01/13 12:10:04;;;;;;;;;10.50;7.00;;;;;0.46;92.57;100046.93;113134;238;39172;-51
2024/01/13 12:12:38;;;;;;;;;9.00;7.00;;;;;0.39;92.52;100047.71;113113;239;40499;-54
2024/01/13 12:15:19;;;;;;;;;12.50;8.00;;;;;0.37;92.37;100042.20;113160;239;40767;-51
2024/01/13 12:17:57;;;;;;;;;10.00;7.00;;;;;0.38;92.31;100035.64;113154;239;39453;-51
2024/01/13 12:20:35;;;;;;;;;8.33;6.00;;;;;0.31;92.26;100034.05;113167;239;38915;-54